sensor_id;sensor_type;location;lat;lon;timestamp;P1;durP1;ratioP1;P2;durP2;ratioP2
48751;SDS011;34544;48.836;9.174;2023-03-04T00:00:28;50.15;;;25.60;;
48751;SDS011;34544;48.836;9.174;2023-03-04T00:02:54;47.38;;;24.17;;
48751;SDS011;34544;48.836;9.174;2023-03-04T00:05:20;48.92;;;24.63;;
48751;SDS011;34544;48.836;9.174;2023-03-04T00:07:45;46.28;;;24.23;;
48751;SDS011;34544;48.836;9.174;2023-03-04T00:10:11;50.58;;;25.20;;
48751;SDS011;34544;48.836;9.174;2023-03-04T00:12:37;49.95;;;24.15;;
48751;SDS011;34544;48.836;9.174;2023-03-04T00:15:02;48.13;;;25.85;;
48751;SDS011;34544;48.836;9.174;2023-03-04T00:17:28;54.20;;;24.60;;
48751;SDS011;34544;48.836;9.174;2023-03-04T00:19:55;53.08;;;25.00;;
48751;SDS011;34544;48.836;9.174;2023-03-04T00:22:21;50.10;;;23.33;;
48751;SDS011;34544;48.836;9.174;2023-03-04T00:24:47;58.38;;;25.30;;
48751;SDS011;34544;48.836;9.174;2023-03-04T00:27:13;55.88;;;24.67;;
48751;SDS011;34544;48.836;9.174;2023-03-04T00:29:39;45.00;;;23.25;;
48751;SDS011;34544;48.836;9.174;2023-03-04T00:32:05;50.03;;;24.85;;
48751;SDS011;34544;48.836;9.174;2023-03-04T00:34:30;52.95;;;24.60;;
48751;SDS011;34544;48.836;9.174;2023-03-04T00:36:56;45.42;;;23.23;;
48751;SDS011;34544;48.836;9.174;2023-03-04T00:39:28;46.75;;;23.45;;
48751;SDS011;34544;48.836;9.174;2023-03-04T00:41:54;46.70;;;24.45;;
48751;SDS011;34544;48.836;9.174;2023-03-04T00:44:20;49.92;;;24.52;;
48751;SDS011;34544;48.836;9.174;2023-03-04T00:46:45;48.47;;;24.13;;
48751;SDS011;34544;48.836;9.174;2023-03-04T00:49:12;47.33;;;22.60;;
48751;SDS011;34544;48.836;9.174;2023-03-04T00:51:38;49.08;;;24.25;;
48751;SDS011;34544;48.836;9.174;2023-03-04T00:54:03;50.95;;;24.98;;
48751;SDS011;34544;48.836;9.174;2023-03-04T00:56:29;45.42;;;22.48;;
48751;SDS011;34544;48.836;9.174;2023-03-04T00:58:55;48.50;;;24.25;;
48751;SDS011;34544;48.836;9.174;2023-03-04T01:01:20;49.90;;;24.15;;
48751;SDS011;34544;48.836;9.174;2023-03-04T01:03:46;46.83;;;22.80;;
48751;SDS011;34544;48.836;9.174;2023-03-04T01:06:12;48.00;;;24.95;;
48751;SDS011;34544;48.836;9.174;2023-03-04T01:08:38;49.72;;;25.52;;
48751;SDS011;34544;48.836;9.174;2023-03-04T01:11:04;43.15;;;23.13;;
48751;SDS011;34544;48.836;9.174;2023-03-04T01:13:29;43.45;;;22.60;;
48751;SDS011;34544;48.836;9.174;2023-03-04T01:15:55;50.33;;;24.42;;
48751;SDS011;34544;48.836;9.174;2023-03-04T01:18:22;49.30;;;23.60;;
48751;SDS011;34544;48.836;9.174;2023-03-04T01:20:48;47.28;;;22.52;;
48751;SDS011;34544;48.836;9.174;2023-03-04T01:23:14;46.65;;;23.50;;
48751;SDS011;34544;48.836;9.174;2023-03-04T01:25:40;43.22;;;21.75;;
48751;SDS011;34544;48.836;9.174;2023-03-04T01:28:06;49.20;;;24.38;;
48751;SDS011;34544;48.836;9.174;2023-03-04T01:30:31;42.50;;;21.92;;
48751;SDS011;34544;48.836;9.174;2023-03-04T01:32:57;46.38;;;23.98;;
48751;SDS011;34544;48.836;9.174;2023-03-04T01:35:23;49.70;;;23.17;;
48751;SDS011;34544;48.836;9.174;2023-03-04T01:37:49;49.45;;;24.10;;
48751;SDS011;34544;48.836;9.174;2023-03-04T01:40:14;44.13;;;22.27;;
48751;SDS011;34544;48.836;9.174;2023-03-04T01:42:40;50.60;;;22.85;;
48751;SDS011;34544;48.836;9.174;2023-03-04T01:45:06;42.75;;;23.15;;
48751;SDS011;34544;48.836;9.174;2023-03-04T01:47:35;39.17;;;21.95;;
48751;SDS011;34544;48.836;9.174;2023-03-04T01:50:02;42.63;;;21.77;;
48751;SDS011;34544;48.836;9.174;2023-03-04T01:52:31;41.08;;;20.13;;
48751;SDS011;34544;48.836;9.174;2023-03-04T01:54:57;39.30;;;20.15;;
48751;SDS011;34544;48.836;9.174;2023-03-04T01:57:23;41.22;;;21.30;;
48751;SDS011;34544;48.836;9.174;2023-03-04T02:00:10;45.28;;;21.05;;
48751;SDS011;34544;48.836;9.174;2023-03-04T02:05:36;43.55;;;20.75;;
48751;SDS011;34544;48.836;9.174;2023-03-04T02:08:05;43.55;;;20.23;;
48751;SDS011;34544;48.836;9.174;2023-03-04T02:10:32;34.08;;;19.95;;
48751;SDS011;34544;48.836;9.174;2023-03-04T02:12:58;40.03;;;19.40;;
48751;SDS011;34544;48.836;9.174;2023-03-04T02:15:25;42.30;;;19.45;;
48751;SDS011;34544;48.836;9.174;2023-03-04T02:17:51;38.70;;;20.58;;
48751;SDS011;34544;48.836;9.174;2023-03-04T02:25:34;42.10;;;20.63;;
48751;SDS011;34544;48.836;9.174;2023-03-04T02:28:09;39.85;;;20.55;;
48751;SDS011;34544;48.836;9.174;2023-03-04T02:30:35;48.60;;;21.48;;
48751;SDS011;34544;48.836;9.174;2023-03-04T02:33:01;41.08;;;19.20;;
48751;SDS011;34544;48.836;9.174;2023-03-04T02:35:26;44.55;;;20.50;;
48751;SDS011;34544;48.836;9.174;2023-03-04T02:37:52;46.25;;;20.45;;
48751;SDS011;34544;48.836;9.174;2023-03-04T02:40:25;39.40;;;19.73;;
48751;SDS011;34544;48.836;9.174;2023-03-04T02:42:53;44.00;;;19.98;;
48751;SDS011;34544;48.836;9.174;2023-03-04T02:45:35;38.28;;;18.60;;
48751;SDS011;34544;48.836;9.174;2023-03-04T02:48:06;37.35;;;18.95;;
48751;SDS011;34544;48.836;9.174;2023-03-04T02:50:34;33.92;;;17.77;;
48751;SDS011;34544;48.836;9.174;2023-03-04T02:53:02;35.83;;;17.85;;
48751;SDS011;34544;48.836;9.174;2023-03-04T02:55:28;35.40;;;17.15;;
48751;SDS011;34544;48.836;9.174;2023-03-04T02:57:54;38.03;;;19.90;;
48751;SDS011;34544;48.836;9.174;2023-03-04T03:00:21;42.15;;;20.05;;
48751;SDS011;34544;48.836;9.174;2023-03-04T03:02:47;33.83;;;19.25;;
48751;SDS011;34544;48.836;9.174;2023-03-04T03:05:12;39.45;;;20.63;;
48751;SDS011;34544;48.836;9.174;2023-03-04T03:07:39;43.35;;;19.33;;
48751;SDS011;34544;48.836;9.174;2023-03-04T03:10:04;38.78;;;18.17;;
48751;SDS011;34544;48.836;9.174;2023-03-04T03:12:30;41.42;;;17.95;;
48751;SDS011;34544;48.836;9.174;2023-03-04T03:14:56;33.72;;;16.50;;
48751;SDS011;34544;48.836;9.174;2023-03-04T03:17:23;41.72;;;19.35;;
48751;SDS011;34544;48.836;9.174;2023-03-04T03:19:48;42.85;;;17.95;;
48751;SDS011;34544;48.836;9.174;2023-03-04T03:22:15;43.28;;;17.30;;
48751;SDS011;34544;48.836;9.174;2023-03-04T03:24:40;46.42;;;20.05;;
48751;SDS011;34544;48.836;9.174;2023-03-04T03:27:06;36.38;;;18.23;;
48751;SDS011;34544;48.836;9.174;2023-03-04T03:29:32;34.65;;;18.42;;
48751;SDS011;34544;48.836;9.174;2023-03-04T03:31:58;38.30;;;20.20;;
48751;SDS011;34544;48.836;9.174;2023-03-04T03:34:23;39.53;;;19.13;;
48751;SDS011;34544;48.836;9.174;2023-03-04T03:36:49;34.25;;;18.60;;
48751;SDS011;34544;48.836;9.174;2023-03-04T03:39:15;40.63;;;19.35;;
48751;SDS011;34544;48.836;9.174;2023-03-04T03:41:41;33.73;;;18.03;;
48751;SDS011;34544;48.836;9.174;2023-03-04T03:44:07;36.60;;;18.65;;
48751;SDS011;34544;48.836;9.174;2023-03-04T03:46:32;39.28;;;19.88;;
48751;SDS011;34544;48.836;9.174;2023-03-04T03:48:59;41.25;;;19.15;;
48751;SDS011;34544;48.836;9.174;2023-03-04T03:51:25;34.10;;;18.20;;
48751;SDS011;34544;48.836;9.174;2023-03-04T03:53:51;39.87;;;19.97;;
48751;SDS011;34544;48.836;9.174;2023-03-04T03:56:16;39.47;;;19.33;;
48751;SDS011;34544;48.836;9.174;2023-03-04T03:58:42;37.33;;;19.03;;
48751;SDS011;34544;48.836;9.174;2023-03-04T04:01:08;38.72;;;18.67;;
48751;SDS011;34544;48.836;9.174;2023-03-04T04:03:33;45.00;;;18.55;;
48751;SDS011;34544;48.836;9.174;2023-03-04T04:05:59;36.95;;;18.70;;
48751;SDS011;34544;48.836;9.174;2023-03-04T04:08:25;38.40;;;19.30;;
48751;SDS011;34544;48.836;9.174;2023-03-04T04:10:51;41.95;;;18.73;;
48751;SDS011;34544;48.836;9.174;2023-03-04T04:13:16;44.30;;;20.50;;
48751;SDS011;34544;48.836;9.174;2023-03-04T04:15:42;40.37;;;18.67;;
48751;SDS011;34544;48.836;9.174;2023-03-04T04:18:08;39.73;;;19.67;;
48751;SDS011;34544;48.836;9.174;2023-03-04T04:20:34;39.77;;;19.20;;
48751;SDS011;34544;48.836;9.174;2023-03-04T04:23:00;43.43;;;20.50;;
48751;SDS011;34544;48.836;9.174;2023-03-04T04:25:26;46.25;;;19.30;;
48751;SDS011;34544;48.836;9.174;2023-03-04T04:27:51;37.50;;;19.47;;
48751;SDS011;34544;48.836;9.174;2023-03-04T04:30:17;40.38;;;19.45;;
48751;SDS011;34544;48.836;9.174;2023-03-04T04:32:43;43.57;;;20.00;;
48751;SDS011;34544;48.836;9.174;2023-03-04T04:35:09;42.63;;;21.40;;
48751;SDS011;34544;48.836;9.174;2023-03-04T04:37:35;44.37;;;21.77;;
48751;SDS011;34544;48.836;9.174;2023-03-04T04:40:01;43.47;;;19.90;;
48751;SDS011;34544;48.836;9.174;2023-03-04T04:42:27;42.63;;;20.07;;
48751;SDS011;34544;48.836;9.174;2023-03-04T04:44:53;42.00;;;21.13;;
48751;SDS011;34544;48.836;9.174;2023-03-04T04:47:19;44.73;;;21.13;;
48751;SDS011;34544;48.836;9.174;2023-03-04T04:49:44;43.38;;;21.33;;
48751;SDS011;34544;48.836;9.174;2023-03-04T04:52:10;51.17;;;21.13;;
48751;SDS011;34544;48.836;9.174;2023-03-04T04:54:36;41.80;;;19.97;;
48751;SDS011;34544;48.836;9.174;2023-03-04T04:57:02;48.43;;;22.23;;
48751;SDS011;34544;48.836;9.174;2023-03-04T04:59:27;45.20;;;21.33;;
48751;SDS011;34544;48.836;9.174;2023-03-04T05:01:53;37.77;;;19.67;;
48751;SDS011;34544;48.836;9.174;2023-03-04T05:04:18;45.03;;;20.00;;
48751;SDS011;34544;48.836;9.174;2023-03-04T05:06:44;43.27;;;22.03;;
48751;SDS011;34544;48.836;9.174;2023-03-04T05:09:10;45.17;;;21.03;;
48751;SDS011;34544;48.836;9.174;2023-03-04T05:11:36;42.07;;;19.27;;
48751;SDS011;34544;48.836;9.174;2023-03-04T05:14:02;45.35;;;20.63;;
48751;SDS011;34544;48.836;9.174;2023-03-04T05:16:28;42.83;;;20.53;;
48751;SDS011;34544;48.836;9.174;2023-03-04T05:18:54;40.20;;;19.97;;
48751;SDS011;34544;48.836;9.174;2023-03-04T05:21:19;42.70;;;19.73;;
48751;SDS011;34544;48.836;9.174;2023-03-04T05:23:45;38.63;;;19.63;;
48751;SDS011;34544;48.836;9.174;2023-03-04T05:26:12;44.40;;;21.70;;
48751;SDS011;34544;48.836;9.174;2023-03-04T05:28:39;43.80;;;20.37;;
48751;SDS011;34544;48.836;9.174;2023-03-04T05:31:05;46.60;;;21.20;;
48751;SDS011;34544;48.836;9.174;2023-03-04T05:33:31;47.93;;;22.33;;
48751;SDS011;34544;48.836;9.174;2023-03-04T05:35:57;47.93;;;23.50;;
48751;SDS011;34544;48.836;9.174;2023-03-04T05:38:23;53.13;;;22.60;;
48751;SDS011;34544;48.836;9.174;2023-03-04T05:40:54;54.03;;;26.00;;
48751;SDS011;34544;48.836;9.174;2023-03-04T05:43:23;53.70;;;25.73;;
48751;SDS011;34544;48.836;9.174;2023-03-04T05:45:50;58.53;;;25.20;;
48751;SDS011;34544;48.836;9.174;2023-03-04T05:48:15;53.27;;;24.10;;
48751;SDS011;34544;48.836;9.174;2023-03-04T05:50:41;56.70;;;24.40;;
48751;SDS011;34544;48.836;9.174;2023-03-04T05:53:07;52.97;;;23.00;;
48751;SDS011;34544;48.836;9.174;2023-03-04T05:55:32;46.17;;;22.70;;
48751;SDS011;34544;48.836;9.174;2023-03-04T05:57:58;46.67;;;22.90;;
48751;SDS011;34544;48.836;9.174;2023-03-04T06:00:24;42.87;;;21.33;;
48751;SDS011;34544;48.836;9.174;2023-03-04T06:02:50;48.20;;;21.43;;
48751;SDS011;34544;48.836;9.174;2023-03-04T06:05:16;45.10;;;22.07;;
48751;SDS011;34544;48.836;9.174;2023-03-04T06:07:42;48.93;;;22.17;;
48751;SDS011;34544;48.836;9.174;2023-03-04T06:10:09;53.17;;;21.93;;
48751;SDS011;34544;48.836;9.174;2023-03-04T06:12:36;49.40;;;21.60;;
48751;SDS011;34544;48.836;9.174;2023-03-04T06:15:02;47.97;;;21.40;;
48751;SDS011;34544;48.836;9.174;2023-03-04T06:17:28;51.13;;;22.53;;
48751;SDS011;34544;48.836;9.174;2023-03-04T06:19:54;56.00;;;24.03;;
48751;SDS011;34544;48.836;9.174;2023-03-04T06:22:20;57.97;;;24.20;;
48751;SDS011;34544;48.836;9.174;2023-03-04T06:24:45;53.23;;;22.73;;
48751;SDS011;34544;48.836;9.174;2023-03-04T06:27:11;55.87;;;24.73;;
48751;SDS011;34544;48.836;9.174;2023-03-04T06:29:37;57.40;;;24.23;;
48751;SDS011;34544;48.836;9.174;2023-03-04T06:32:03;49.97;;;23.63;;
48751;SDS011;34544;48.836;9.174;2023-03-04T06:34:29;71.03;;;28.20;;
48751;SDS011;34544;48.836;9.174;2023-03-04T06:36:55;57.33;;;25.53;;
48751;SDS011;34544;48.836;9.174;2023-03-04T06:39:20;57.73;;;25.23;;
48751;SDS011;34544;48.836;9.174;2023-03-04T06:41:46;46.20;;;24.77;;
48751;SDS011;34544;48.836;9.174;2023-03-04T06:44:12;54.63;;;24.63;;
48751;SDS011;34544;48.836;9.174;2023-03-04T06:46:37;48.38;;;21.83;;
48751;SDS011;34544;48.836;9.174;2023-03-04T06:49:03;53.07;;;24.23;;
48751;SDS011;34544;48.836;9.174;2023-03-04T06:51:29;56.85;;;25.48;;
48751;SDS011;34544;48.836;9.174;2023-03-04T06:53:55;51.37;;;22.53;;
48751;SDS011;34544;48.836;9.174;2023-03-04T06:56:20;42.92;;;20.58;;
48751;SDS011;34544;48.836;9.174;2023-03-04T06:58:46;54.60;;;24.92;;
48751;SDS011;34544;48.836;9.174;2023-03-04T07:01:14;60.00;;;22.67;;
48751;SDS011;34544;48.836;9.174;2023-03-04T07:03:43;46.63;;;22.23;;
48751;SDS011;34544;48.836;9.174;2023-03-04T07:06:09;44.53;;;20.92;;
48751;SDS011;34544;48.836;9.174;2023-03-04T07:08:37;49.85;;;24.83;;
48751;SDS011;34544;48.836;9.174;2023-03-04T07:11:03;47.50;;;22.55;;
48751;SDS011;34544;48.836;9.174;2023-03-04T07:13:28;46.10;;;22.65;;
48751;SDS011;34544;48.836;9.174;2023-03-04T07:15:54;49.30;;;21.42;;
48751;SDS011;34544;48.836;9.174;2023-03-04T07:18:20;42.15;;;21.05;;
48751;SDS011;34544;48.836;9.174;2023-03-04T07:20:46;43.35;;;21.50;;
48751;SDS011;34544;48.836;9.174;2023-03-04T07:23:12;48.15;;;22.45;;
48751;SDS011;34544;48.836;9.174;2023-03-04T07:25:37;42.17;;;20.75;;
48751;SDS011;34544;48.836;9.174;2023-03-04T07:28:03;41.50;;;21.13;;
48751;SDS011;34544;48.836;9.174;2023-03-04T07:30:28;47.70;;;20.70;;
48751;SDS011;34544;48.836;9.174;2023-03-04T07:32:57;37.50;;;20.02;;
48751;SDS011;34544;48.836;9.174;2023-03-04T07:35:22;44.30;;;19.85;;
48751;SDS011;34544;48.836;9.174;2023-03-04T07:37:48;34.90;;;19.13;;
48751;SDS011;34544;48.836;9.174;2023-03-04T07:40:14;38.97;;;20.25;;
48751;SDS011;34544;48.836;9.174;2023-03-04T07:42:40;36.38;;;18.98;;
48751;SDS011;34544;48.836;9.174;2023-03-04T07:45:09;35.15;;;19.40;;
48751;SDS011;34544;48.836;9.174;2023-03-04T07:47:35;42.33;;;18.80;;
48751;SDS011;34544;48.836;9.174;2023-03-04T07:50:02;38.17;;;18.40;;
48751;SDS011;34544;48.836;9.174;2023-03-04T07:52:28;32.60;;;17.23;;
48751;SDS011;34544;48.836;9.174;2023-03-04T07:54:53;28.92;;;15.57;;
48751;SDS011;34544;48.836;9.174;2023-03-04T07:57:19;30.90;;;16.33;;
48751;SDS011;34544;48.836;9.174;2023-03-04T07:59:45;34.30;;;17.42;;
48751;SDS011;34544;48.836;9.174;2023-03-04T08:02:13;32.00;;;16.38;;
48751;SDS011;34544;48.836;9.174;2023-03-04T08:04:39;31.73;;;17.35;;
48751;SDS011;34544;48.836;9.174;2023-03-04T08:07:05;34.45;;;17.00;;
48751;SDS011;34544;48.836;9.174;2023-03-04T08:09:31;32.92;;;17.10;;
48751;SDS011;34544;48.836;9.174;2023-03-04T08:11:57;30.80;;;16.85;;
48751;SDS011;34544;48.836;9.174;2023-03-04T08:14:22;29.65;;;16.77;;
48751;SDS011;34544;48.836;9.174;2023-03-04T08:16:48;32.17;;;17.65;;
48751;SDS011;34544;48.836;9.174;2023-03-04T08:19:13;34.80;;;17.77;;
48751;SDS011;34544;48.836;9.174;2023-03-04T08:21:39;33.83;;;17.50;;
48751;SDS011;34544;48.836;9.174;2023-03-04T08:24:05;38.92;;;19.00;;
48751;SDS011;34544;48.836;9.174;2023-03-04T08:26:34;34.60;;;17.90;;
48751;SDS011;34544;48.836;9.174;2023-03-04T08:29:06;39.45;;;19.88;;
48751;SDS011;34544;48.836;9.174;2023-03-04T08:31:33;42.95;;;20.40;;
48751;SDS011;34544;48.836;9.174;2023-03-04T08:33:59;43.20;;;19.75;;
48751;SDS011;34544;48.836;9.174;2023-03-04T08:36:26;44.33;;;21.40;;
48751;SDS011;34544;48.836;9.174;2023-03-04T08:38:52;35.92;;;19.40;;
48751;SDS011;34544;48.836;9.174;2023-03-04T08:41:17;44.97;;;19.25;;
48751;SDS011;34544;48.836;9.174;2023-03-04T08:43:43;40.88;;;20.67;;
48751;SDS011;34544;48.836;9.174;2023-03-04T08:46:09;40.20;;;19.70;;
48751;SDS011;34544;48.836;9.174;2023-03-04T08:48:35;38.78;;;20.77;;
48751;SDS011;34544;48.836;9.174;2023-03-04T08:51:05;37.47;;;19.40;;
48751;SDS011;34544;48.836;9.174;2023-03-04T08:53:33;33.45;;;17.60;;
48751;SDS011;34544;48.836;9.174;2023-03-04T08:55:58;38.85;;;19.95;;
48751;SDS011;34544;48.836;9.174;2023-03-04T08:58:24;35.50;;;18.85;;
48751;SDS011;34544;48.836;9.174;2023-03-04T09:00:49;37.40;;;19.95;;
48751;SDS011;34544;48.836;9.174;2023-03-04T09:03:15;29.15;;;16.88;;
48751;SDS011;34544;48.836;9.174;2023-03-04T09:05:43;33.13;;;18.77;;
48751;SDS011;34544;48.836;9.174;2023-03-04T09:08:11;34.15;;;19.33;;
48751;SDS011;34544;48.836;9.174;2023-03-04T09:10:37;34.75;;;18.35;;
48751;SDS011;34544;48.836;9.174;2023-03-04T09:13:02;37.10;;;18.25;;
48751;SDS011;34544;48.836;9.174;2023-03-04T09:15:28;35.50;;;18.58;;
48751;SDS011;34544;48.836;9.174;2023-03-04T09:17:54;28.25;;;17.20;;
48751;SDS011;34544;48.836;9.174;2023-03-04T09:20:19;30.75;;;18.08;;
48751;SDS011;34544;48.836;9.174;2023-03-04T09:22:47;35.15;;;18.92;;
48751;SDS011;34544;48.836;9.174;2023-03-04T09:25:13;29.98;;;18.25;;
48751;SDS011;34544;48.836;9.174;2023-03-04T09:27:39;35.03;;;17.92;;
48751;SDS011;34544;48.836;9.174;2023-03-04T09:30:06;30.20;;;16.42;;
48751;SDS011;34544;48.836;9.174;2023-03-04T09:32:32;28.90;;;15.93;;
48751;SDS011;34544;48.836;9.174;2023-03-04T09:34:58;35.35;;;16.95;;
48751;SDS011;34544;48.836;9.174;2023-03-04T09:37:24;30.27;;;17.42;;
48751;SDS011;34544;48.836;9.174;2023-03-04T09:39:49;31.95;;;17.90;;
48751;SDS011;34544;48.836;9.174;2023-03-04T09:42:24;29.17;;;15.65;;
48751;SDS011;34544;48.836;9.174;2023-03-04T09:44:58;30.80;;;16.70;;
48751;SDS011;34544;48.836;9.174;2023-03-04T09:47:24;25.67;;;15.20;;
48751;SDS011;34544;48.836;9.174;2023-03-04T09:49:55;26.77;;;16.45;;
48751;SDS011;34544;48.836;9.174;2023-03-04T09:53:12;30.88;;;16.55;;
48751;SDS011;34544;48.836;9.174;2023-03-04T09:57:59;29.23;;;16.05;;
48751;SDS011;34544;48.836;9.174;2023-03-04T10:00:50;29.13;;;16.67;;
48751;SDS011;34544;48.836;9.174;2023-03-04T10:03:28;27.63;;;17.40;;
48751;SDS011;34544;48.836;9.174;2023-03-04T10:06:18;28.08;;;16.55;;
48751;SDS011;34544;48.836;9.174;2023-03-04T10:08:49;33.67;;;18.85;;
48751;SDS011;34544;48.836;9.174;2023-03-04T10:11:22;30.33;;;17.00;;
48751;SDS011;34544;48.836;9.174;2023-03-04T10:14:10;33.00;;;18.50;;
48751;SDS011;34544;48.836;9.174;2023-03-04T10:25:20;32.13;;;19.38;;
48751;SDS011;34544;48.836;9.174;2023-03-04T10:27:59;34.15;;;19.67;;
48751;SDS011;34544;48.836;9.174;2023-03-04T10:30:31;28.35;;;17.75;;
48751;SDS011;34544;48.836;9.174;2023-03-04T10:33:18;35.15;;;19.58;;
48751;SDS011;34544;48.836;9.174;2023-03-04T10:35:58;32.58;;;18.95;;
48751;SDS011;34544;48.836;9.174;2023-03-04T10:38:31;37.83;;;20.23;;
48751;SDS011;34544;48.836;9.174;2023-03-04T10:41:09;32.53;;;19.10;;
48751;SDS011;34544;48.836;9.174;2023-03-04T10:43:37;44.90;;;26.42;;
48751;SDS011;34544;48.836;9.174;2023-03-04T10:46:04;37.72;;;21.38;;
48751;SDS011;34544;48.836;9.174;2023-03-04T10:48:30;37.67;;;23.63;;
48751;SDS011;34544;48.836;9.174;2023-03-04T10:51:18;38.65;;;20.33;;
48751;SDS011;34544;48.836;9.174;2023-03-04T10:53:44;37.13;;;22.67;;
48751;SDS011;34544;48.836;9.174;2023-03-04T11:01:50;39.83;;;23.50;;
48751;SDS011;34544;48.836;9.174;2023-03-04T11:04:18;39.40;;;24.48;;
48751;SDS011;34544;48.836;9.174;2023-03-04T11:06:46;36.03;;;23.52;;
48751;SDS011;34544;48.836;9.174;2023-03-04T11:09:20;38.88;;;22.88;;
48751;SDS011;34544;48.836;9.174;2023-03-04T11:11:48;41.17;;;25.10;;
48751;SDS011;34544;48.836;9.174;2023-03-04T11:16:54;41.10;;;23.83;;
48751;SDS011;34544;48.836;9.174;2023-03-04T11:19:22;41.67;;;24.08;;
48751;SDS011;34544;48.836;9.174;2023-03-04T11:21:53;46.28;;;26.80;;
48751;SDS011;34544;48.836;9.174;2023-03-04T11:24:29;45.60;;;25.40;;
48751;SDS011;34544;48.836;9.174;2023-03-04T11:29:41;41.58;;;24.85;;
48751;SDS011;34544;48.836;9.174;2023-03-04T11:32:13;44.90;;;27.88;;
48751;SDS011;34544;48.836;9.174;2023-03-04T11:35:01;44.22;;;26.65;;
48751;SDS011;34544;48.836;9.174;2023-03-04T11:37:41;42.27;;;25.37;;
48751;SDS011;34544;48.836;9.174;2023-03-04T11:40:22;42.05;;;24.92;;
48751;SDS011;34544;48.836;9.174;2023-03-04T11:42:58;40.40;;;26.15;;
48751;SDS011;34544;48.836;9.174;2023-03-04T11:45:44;49.80;;;28.13;;
48751;SDS011;34544;48.836;9.174;2023-03-04T11:51:10;50.85;;;27.15;;
48751;SDS011;34544;48.836;9.174;2023-03-04T11:54:07;53.28;;;29.13;;
48751;SDS011;34544;48.836;9.174;2023-03-04T11:57:00;45.05;;;27.23;;
48751;SDS011;34544;48.836;9.174;2023-03-04T11:59:38;47.10;;;26.63;;
48751;SDS011;34544;48.836;9.174;2023-03-04T12:11:19;48.97;;;28.13;;
48751;SDS011;34544;48.836;9.174;2023-03-04T12:14:20;51.67;;;27.98;;
48751;SDS011;34544;48.836;9.174;2023-03-04T12:25:41;53.92;;;29.88;;
48751;SDS011;34544;48.836;9.174;2023-03-04T12:28:31;50.75;;;29.80;;
48751;SDS011;34544;48.836;9.174;2023-03-04T12:31:31;55.73;;;31.13;;
48751;SDS011;34544;48.836;9.174;2023-03-04T12:36:44;52.78;;;27.60;;
48751;SDS011;34544;48.836;9.174;2023-03-04T12:39:19;48.85;;;28.45;;
48751;SDS011;34544;48.836;9.174;2023-03-04T12:44:53;51.60;;;29.90;;
48751;SDS011;34544;48.836;9.174;2023-03-04T12:47:43;51.35;;;26.40;;
48751;SDS011;34544;48.836;9.174;2023-03-04T12:50:30;58.15;;;28.58;;
48751;SDS011;34544;48.836;9.174;2023-03-04T12:56:20;54.92;;;31.13;;
48751;SDS011;34544;48.836;9.174;2023-03-04T12:58:57;49.55;;;29.27;;
48751;SDS011;34544;48.836;9.174;2023-03-04T13:01:25;52.50;;;29.50;;
48751;SDS011;34544;48.836;9.174;2023-03-04T13:03:57;49.03;;;26.80;;
48751;SDS011;34544;48.836;9.174;2023-03-04T13:11:41;49.22;;;28.02;;
48751;SDS011;34544;48.836;9.174;2023-03-04T13:16:40;47.38;;;26.35;;
48751;SDS011;34544;48.836;9.174;2023-03-04T13:28:12;44.13;;;22.63;;
48751;SDS011;34544;48.836;9.174;2023-03-04T13:33:43;39.20;;;20.35;;
48751;SDS011;34544;48.836;9.174;2023-03-04T13:36:27;35.97;;;19.65;;
48751;SDS011;34544;48.836;9.174;2023-03-04T13:41:30;31.45;;;19.25;;
48751;SDS011;34544;48.836;9.174;2023-03-04T13:47:15;29.90;;;18.13;;
48751;SDS011;34544;48.836;9.174;2023-03-04T13:49:44;32.22;;;18.15;;
48751;SDS011;34544;48.836;9.174;2023-03-04T13:58:06;34.22;;;17.25;;
48751;SDS011;34544;48.836;9.174;2023-03-04T14:00:55;32.05;;;15.27;;
48751;SDS011;34544;48.836;9.174;2023-03-04T14:03:22;27.52;;;14.20;;
48751;SDS011;34544;48.836;9.174;2023-03-04T14:08:43;23.67;;;14.00;;
48751;SDS011;34544;48.836;9.174;2023-03-04T14:11:11;33.40;;;15.65;;
48751;SDS011;34544;48.836;9.174;2023-03-04T14:14:04;30.65;;;16.38;;
48751;SDS011;34544;48.836;9.174;2023-03-04T14:16:34;25.77;;;14.52;;
48751;SDS011;34544;48.836;9.174;2023-03-04T14:19:04;37.95;;;19.08;;
48751;SDS011;34544;48.836;9.174;2023-03-04T14:21:32;25.58;;;15.85;;
48751;SDS011;34544;48.836;9.174;2023-03-04T14:24:05;27.98;;;15.27;;
48751;SDS011;34544;48.836;9.174;2023-03-04T14:26:35;36.90;;;17.65;;
48751;SDS011;34544;48.836;9.174;2023-03-04T14:29:01;30.98;;;16.50;;
48751;SDS011;34544;48.836;9.174;2023-03-04T14:31:28;29.33;;;15.93;;
48751;SDS011;34544;48.836;9.174;2023-03-04T14:33:58;27.05;;;15.45;;
48751;SDS011;34544;48.836;9.174;2023-03-04T14:36:27;35.38;;;16.55;;
48751;SDS011;34544;48.836;9.174;2023-03-04T14:38:56;34.13;;;16.30;;
48751;SDS011;34544;48.836;9.174;2023-03-04T14:41:34;32.30;;;19.35;;
48751;SDS011;34544;48.836;9.174;2023-03-04T14:44:07;35.53;;;16.67;;
48751;SDS011;34544;48.836;9.174;2023-03-04T14:46:52;36.72;;;17.27;;
48751;SDS011;34544;48.836;9.174;2023-03-04T14:49:26;28.75;;;15.55;;
48751;SDS011;34544;48.836;9.174;2023-03-04T14:51:52;34.13;;;16.65;;
48751;SDS011;34544;48.836;9.174;2023-03-04T14:57:20;33.08;;;16.17;;
48751;SDS011;34544;48.836;9.174;2023-03-04T14:59:48;35.28;;;15.05;;
48751;SDS011;34544;48.836;9.174;2023-03-04T15:02:18;36.17;;;16.13;;
48751;SDS011;34544;48.836;9.174;2023-03-04T15:04:59;30.83;;;15.65;;
48751;SDS011;34544;48.836;9.174;2023-03-04T15:07:33;36.67;;;16.20;;
48751;SDS011;34544;48.836;9.174;2023-03-04T15:10:01;31.95;;;16.77;;
48751;SDS011;34544;48.836;9.174;2023-03-04T15:12:30;32.28;;;15.95;;
48751;SDS011;34544;48.836;9.174;2023-03-04T15:14:58;36.10;;;17.77;;
48751;SDS011;34544;48.836;9.174;2023-03-04T15:17:28;28.73;;;15.10;;
48751;SDS011;34544;48.836;9.174;2023-03-04T15:22:43;25.52;;;14.43;;
48751;SDS011;34544;48.836;9.174;2023-03-04T15:25:26;29.45;;;17.83;;
48751;SDS011;34544;48.836;9.174;2023-03-04T15:27:52;35.78;;;18.13;;
48751;SDS011;34544;48.836;9.174;2023-03-04T15:30:19;33.67;;;18.15;;
48751;SDS011;34544;48.836;9.174;2023-03-04T15:32:46;28.80;;;17.55;;
48751;SDS011;34544;48.836;9.174;2023-03-04T15:35:13;33.03;;;17.42;;
48751;SDS011;34544;48.836;9.174;2023-03-04T15:37:41;30.30;;;15.15;;
48751;SDS011;34544;48.836;9.174;2023-03-04T15:42:48;31.20;;;18.38;;
48751;SDS011;34544;48.836;9.174;2023-03-04T15:47:47;34.60;;;18.35;;
48751;SDS011;34544;48.836;9.174;2023-03-04T15:50:14;34.40;;;16.52;;
48751;SDS011;34544;48.836;9.174;2023-03-04T15:52:40;30.58;;;17.17;;
48751;SDS011;34544;48.836;9.174;2023-03-04T15:55:06;30.20;;;18.77;;
48751;SDS011;34544;48.836;9.174;2023-03-04T15:57:37;34.20;;;18.75;;
48751;SDS011;34544;48.836;9.174;2023-03-04T16:00:03;45.50;;;19.65;;
48751;SDS011;34544;48.836;9.174;2023-03-04T16:02:36;37.55;;;19.88;;
48751;SDS011;34544;48.836;9.174;2023-03-04T16:05:02;37.53;;;17.77;;
48751;SDS011;34544;48.836;9.174;2023-03-04T16:07:28;29.80;;;16.13;;
48751;SDS011;34544;48.836;9.174;2023-03-04T16:09:55;42.58;;;17.05;;
48751;SDS011;34544;48.836;9.174;2023-03-04T16:12:25;33.85;;;16.52;;
48751;SDS011;34544;48.836;9.174;2023-03-04T16:14:52;38.53;;;19.13;;